Time;durP1;ratioP1;P1;durP2;ratioP2;P2;SDS_P1;SDS_P2;PMS_P1;PMS_P2;Temp;Humidity;BMP_temperature;BMP_pressure;BME280_temperature;BME280_humidity;BME280_pressure;Samples;Min_cycle;Max_cycle;Signal;HPM_P1;HPM_P2
2023/07/23 00:01:24;;;;;;;;;;;;;;;;;;6171694;23;19970;-90
2023/07/23 00:03:53;;;;;;;;;;;;;;;;;;6173974;23;19986;-89
2023/07/23 00:06:26;;;;;;;;;;;;;;;;;;6167827;23;19994;-90
2023/07/23 00:08:55;;;;;;;;;;;;;;;;;;6199364;23;19964;-90
2023/07/23 00:11:29;;;;;;;;;;;;;;;;;;6174689;23;20542;-90
2023/07/23 00:13:56;;;;;;;;;;;;;;;;;;6200454;23;20026;-89
2023/07/23 00:16:24;;;;;;;;;;;;;;;;;;6175694;23;20018;-89
2023/07/23 00:18:59;;;;;;;;;;;;;;;;;;6175821;23;20194;-89
2023/07/23 00:21:25;;;;;;;;;;;;;;;;;;6172647;23;19919;-89
2023/07/23 00:23:51;;;;;;;;;;;;;;;;;;6200096;23;20018;-89
2023/07/23 00:26:19;;;;;;;;;;;;;;;;;;6198638;23;19978;-90
2023/07/23 00:28:45;;;;;;;;;;;;;;;;;;6198979;23;20384;-89
2023/07/23 00:31:23;;;;;;;;;;;;;;;;;;6172449;23;19946;-89
2023/07/23 00:33:49;;;;;;;;;;;;;;;;;;6171962;23;19919;-89
2023/07/23 00:36:15;;;;;;;;;;;;;;;;;;6169376;23;19999;-89
2023/07/23 00:38:41;;;;;;;;;;;;;;;;;;6171309;23;19951;-89
2023/07/23 00:41:07;;;;;;;;;;;;;;;;;;6225381;23;19978;-88
2023/07/23 00:43:33;;;;;;;;;;;;;;;;;;6171239;23;19927;-89
2023/07/23 00:45:59;;;;;;;;;;;;;;;;;;6198862;23;19916;-89
2023/07/23 00:48:28;;;;;;;;;;;;;;;;;;6196398;23;20331;-89
2023/07/23 00:50:55;;;;;;;;;;;;;;;;;;6224874;22;19934;-89
2023/07/23 00:53:21;;;;;;;;;;;;;;;;;;6172584;23;20359;-89
2023/07/23 00:55:47;;;;;;;;;;;;;;;;;;6171444;23;20550;-88
2023/07/23 00:58:13;;;;;;;;;;;;;;;;;;6170335;23;20299;-89
2023/07/23 01:00:39;;;;;;;;;;;;;;;;;;6174976;23;20493;-89
2023/07/23 01:03:05;;;;;;;;;;;;;;;;;;6171154;23;19919;-89
2023/07/23 01:05:31;;;;;;;;;;;;;;;;;;6173250;23;19992;-89
2023/07/23 01:07:57;;;;;;;;;;;;;;;;;;6195889;23;20487;-89
2023/07/23 01:10:23;;;;;;;;;;;;;;;;;;6196548;23;19977;-89
2023/07/23 01:12:51;;;;;;;;;;;;;;;;;;6198725;23;19985;-89
2023/07/23 01:15:17;;;;;;;;;;;;;;;;;;6198302;23;19980;-89
2023/07/23 01:17:43;;;;;;;;;;;;;;;;;;6197483;23;20018;-88
2023/07/23 01:20:09;;;;;;;;;;;;;;;;;;6169801;23;20264;-88
2023/07/23 01:22:38;;;;;;;;;;;;;;;;;;6172490;23;20036;-88
2023/07/23 01:25:07;;;;;;;;;;;;;;;;;;6171680;23;20343;-88
2023/07/23 01:27:33;;;;;;;;;;;;;;;;;;6172930;23;20439;-88
2023/07/23 01:29:59;;;;;;;;;;;;;;;;;;6172434;23;20482;-88
2023/07/23 01:32:25;;;;;;;;;;;;;;;;;;6168968;23;19954;-88
2023/07/23 01:34:51;;;;;;;;;;;;;;;;;;6174762;23;19919;-89
2023/07/23 01:37:17;;;;;;;;;;;;;;;;;;6220839;23;19931;-88
2023/07/23 01:39:43;;;;;;;;;;;;;;;;;;6171314;23;20240;-88
2023/07/23 01:42:09;;;;;;;;;;;;;;;;;;6169499;23;19920;-88
2023/07/23 01:44:35;;;;;;;;;;;;;;;;;;6173662;23;20269;-89
2023/07/23 01:47:01;;;;;;;;;;;;;;;;;;6167609;23;19927;-89
2023/07/23 01:49:27;;;;;;;;;;;;;;;;;;6173253;22;19919;-89
2023/07/23 01:51:53;;;;;;;;;;;;;;;;;;6173865;23;19950;-89
2023/07/23 01:54:19;;;;;;;;;;;;;;;;;;6174094;23;19998;-89
2023/07/23 01:56:47;;;;;;;;;;;;;;;;;;6198064;23;20363;-89
2023/07/23 01:59:16;;;;;;;;;;;;;;;;;;6173079;23;19915;-90
2023/07/23 02:01:42;;;;;;;;;;;;;;;;;;6198498;23;19919;-89
2023/07/23 02:04:08;;;;;;;;;;;;;;;;;;6196510;23;20034;-89
2023/07/23 02:06:34;;;;;;;;;;;;;;;;;;6176510;23;19967;-89
2023/07/23 02:09:03;;;;;;;;;;;;;;;;;;6176586;23;19994;-89
2023/07/23 02:11:29;;;;;;;;;;;;;;;;;;6199666;23;19966;-89
2023/07/23 02:13:55;;;;;;;;;;;;;;;;;;6176299;23;20116;-89
2023/07/23 02:16:22;;;;;;;;;;;;;;;;;;6173358;23;20535;-89
2023/07/23 02:18:48;;;;;;;;;;;;;;;;;;6177972;23;19984;-89
2023/07/23 02:21:16;;;;;;;;;;;;;;;;;;6173855;23;19931;-89
2023/07/23 02:23:42;;;;;;;;;;;;;;;;;;6200411;23;19999;-89
2023/07/23 02:26:13;;;;;;;;;;;;;;;;;;6198286;23;19939;-89
2023/07/23 02:28:42;;;;;;;;;;;;;;;;;;6200607;23;19919;-89
2023/07/23 02:31:08;;;;;;;;;;;;;;;;;;6197893;23;19919;-89
2023/07/23 02:33:34;;;;;;;;;;;;;;;;;;6176591;23;19947;-89
2023/07/23 02:36:00;;;;;;;;;;;;;;;;;;6172684;23;20246;-89
2023/07/23 02:38:29;;;;;;;;;;;;;;;;;;6173463;23;19919;-88
2023/07/23 02:40:58;;;;;;;;;;;;;;;;;;6174373;23;20206;-89
2023/07/23 02:43:24;;;;;;;;;;;;;;;;;;6171524;23;19934;-89
2023/07/23 02:45:50;;;;;;;;;;;;;;;;;;6199308;23;19923;-89
2023/07/23 02:48:16;;;;;;;;;;;;;;;;;;6171820;23;19919;-88
2023/07/23 02:50:41;;;;;;;;;;;;;;;;;;6175248;23;19927;-89
2023/07/23 02:53:07;;;;;;;;;;;;;;;;;;6173335;23;19920;-89
2023/07/23 02:55:33;;;;;;;;;;;;;;;;;;6196604;23;20065;-88
2023/07/23 02:58:03;;;;;;;;;;;;;;;;;;6173004;23;19920;-87
2023/07/23 03:00:29;;;;;;;;;;;;;;;;;;6173870;23;20311;-88
2023/07/23 03:02:55;;;;;;;;;;;;;;;;;;6174026;23;20252;-89
2023/07/23 03:05:24;;;;;;;;;;;;;;;;;;6170722;23;20333;-88
2023/07/23 03:07:50;;;;;;;;;;;;;;;;;;6197625;23;20300;-88
2023/07/23 03:10:16;;;;;;;;;;;;;;;;;;6169601;23;19962;-88
2023/07/23 03:12:42;;;;;;;;;;;;;;;;;;6175711;23;19955;-89
2023/07/23 03:15:08;;;;;;;;;;;;;;;;;;6173733;23;19919;-88
2023/07/23 03:17:34;;;;;;;;;;;;;;;;;;6199476;23;20412;-88
2023/07/23 03:20:00;;;;;;;;;;;;;;;;;;6201154;23;19926;-89
2023/07/23 03:22:26;;;;;;;;;;;;;;;;;;6176429;23;19919;-89
2023/07/23 03:24:52;;;;;;;;;;;;;;;;;;6201485;23;19920;-88
2023/07/23 03:27:18;;;;;;;;;;;;;;;;;;6197287;23;20352;-88
2023/07/23 03:29:44;;;;;;;;;;;;;;;;;;6174261;23;19955;-88
2023/07/23 03:32:10;;;;;;;;;;;;;;;;;;6171719;23;19994;-88
2023/07/23 03:34:36;;;;;;;;;;;;;;;;;;6175039;23;20045;-89
2023/07/23 03:37:02;;;;;;;;;;;;;;;;;;6170885;23;19926;-88
2023/07/23 03:39:28;;;;;;;;;;;;;;;;;;6223833;23;19919;-89
2023/07/23 03:41:54;;;;;;;;;;;;;;;;;;6202573;23;19926;-89
2023/07/23 03:44:20;;;;;;;;;;;;;;;;;;6198215;23;19924;-89
2023/07/23 03:46:46;;;;;;;;;;;;;;;;;;6198091;23;20016;-89
2023/07/23 03:49:12;;;;;;;;;;;;;;;;;;6171747;22;19919;-89
2023/07/23 03:51:54;;;;;;;;;;;;;;;;;;6176393;23;20193;-88
2023/07/23 03:54:20;;;;;;;;;;;;;;;;;;6170174;23;20472;-89
2023/07/23 03:56:46;;;;;;;;;;;;;;;;;;6197273;23;20089;-89
2023/07/23 03:59:12;;;;;;;;;;;;;;;;;;6173498;23;19931;-88
2023/07/23 04:01:38;;;;;;;;;;;;;;;;;;6173298;23;19919;-89
2023/07/23 04:04:10;;;;;;;;;;;;;;;;;;6168828;23;19930;-88
2023/07/23 04:06:36;;;;;;;;;;;;;;;;;;6172194;23;19915;-89
2023/07/23 04:09:02;;;;;;;;;;;;;;;;;;6169691;23;19930;-89
2023/07/23 04:11:28;;;;;;;;;;;;;;;;;;6171805;23;20038;-89
2023/07/23 04:13:54;;;;;;;;;;;;;;;;;;6173486;23;20278;-89
2023/07/23 04:16:22;;;;;;;;;;;;;;;;;;6173556;23;20002;-89
2023/07/23 04:18:48;;;;;;;;;;;;;;;;;;6198634;23;19973;-89
2023/07/23 04:21:21;;;;;;;;;;;;;;;;;;6197755;23;19931;-90
2023/07/23 04:23:48;;;;;;;;;;;;;;;;;;6170684;23;19931;-90
2023/07/23 04:26:14;;;;;;;;;;;;;;;;;;6171351;23;19930;-89
2023/07/23 04:28:39;;;;;;;;;;;;;;;;;;6173310;23;20430;-89
2023/07/23 04:31:05;;;;;;;;;;;;;;;;;;6196229;23;19927;-89
2023/07/23 04:33:31;;;;;;;;;;;;;;;;;;6172680;23;19919;-89
2023/07/23 04:36:05;;;;;;;;;;;;;;;;;;6171913;23;19926;-89
2023/07/23 04:38:34;;;;;;;;;;;;;;;;;;6197476;23;19923;-89
2023/07/23 04:41:00;;;;;;;;;;;;;;;;;;6175260;23;19920;-89
2023/07/23 04:43:29;;;;;;;;;;;;;;;;;;6175818;23;19919;-89
2023/07/23 04:45:58;;;;;;;;;;;;;;;;;;6173724;23;20335;-89
2023/07/23 04:48:40;;;;;;;;;;;;;;;;;;6199381;23;20400;-89
2023/07/23 04:51:06;;;;;;;;;;;;;;;;;;6171893;23;19965;-89
2023/07/23 04:53:32;;;;;;;;;;;;;;;;;;6200701;23;20010;-90
2023/07/23 04:55:58;;;;;;;;;;;;;;;;;;6174565;23;20335;-89
2023/07/23 04:58:24;;;;;;;;;;;;;;;;;;6197838;23;20543;-89
2023/07/23 05:00:50;;;;;;;;;;;;;;;;;;6174333;23;19919;-89
2023/07/23 05:03:16;;;;;;;;;;;;;;;;;;6169383;23;20336;-88
2023/07/23 05:05:42;;;;;;;;;;;;;;;;;;6199606;23;19923;-89
2023/07/23 05:08:08;;;;;;;;;;;;;;;;;;6171922;23;20289;-89
2023/07/23 05:10:45;;;;;;;;;;;;;;;;;;6174310;23;19919;-89
2023/07/23 05:13:13;;;;;;;;;;;;;;;;;;6196418;23;19923;-89
2023/07/23 05:15:45;;;;;;;;;;;;;;;;;;6175798;23;19985;-89
2023/07/23 05:18:11;;;;;;;;;;;;;;;;;;6171006;23;19919;-89
2023/07/23 05:20:37;;;;;;;;;;;;;;;;;;6172321;23;19920;-89
2023/07/23 05:23:03;;;;;;;;;;;;;;;;;;6171576;23;19919;-89
2023/07/23 05:25:32;;;;;;;;;;;;;;;;;;6197138;23;19923;-88
2023/07/23 05:27:58;;;;;;;;;;;;;;;;;;6171292;23;19973;-89
2023/07/23 05:30:24;;;;;;;;;;;;;;;;;;6197092;23;19924;-89
2023/07/23 05:32:50;;;;;;;;;;;;;;;;;;6176387;23;19920;-89
2023/07/23 05:35:16;;;;;;;;;;;;;;;;;;6175720;23;19942;-89
2023/07/23 05:37:42;;;;;;;;;;;;;;;;;;6230238;23;19941;-89
2023/07/23 05:40:08;;;;;;;;;;;;;;;;;;6203464;23;19919;-89
2023/07/23 05:42:34;;;;;;;;;;;;;;;;;;6184388;23;19920;-89
2023/07/23 05:45:03;;;;;;;;;;;;;;;;;;6208620;23;20290;-89
2023/07/23 05:47:29;;;;;;;;;;;;;;;;;;6206173;23;19974;-89
2023/07/23 05:49:55;;;;;;;;;;;;;;;;;;6207795;23;19919;-89
2023/07/23 05:52:24;;;;;;;;;;;;;;;;;;6178014;23;20073;-88
2023/07/23 05:54:50;;;;;;;;;;;;;;;;;;6178402;23;19923;-88
2023/07/23 05:57:21;;;;;;;;;;;;;;;;;;6177891;23;20337;-88
2023/07/23 05:59:48;;;;;;;;;;;;;;;;;;6177740;23;20012;-88
2023/07/23 06:02:14;;;;;;;;;;;;;;;;;;6231220;23;19923;-89
2023/07/23 06:04:41;;;;;;;;;;;;;;;;;;6180596;23;20006;-89
2023/07/23 06:07:07;;;;;;;;;;;;;;;;;;6178911;23;19919;-89
2023/07/23 06:09:33;;;;;;;;;;;;;;;;;;6204423;23;19966;-88
2023/07/23 06:11:59;;;;;;;;;;;;;;;;;;6230172;23;19951;-88
2023/07/23 06:14:25;;;;;;;;;;;;;;;;;;6203681;23;20361;-88
2023/07/23 06:16:51;;;;;;;;;;;;;;;;;;6206819;23;20001;-88
2023/07/23 06:19:17;;;;;;;;;;;;;;;;;;6204620;23;19927;-89
2023/07/23 06:21:43;;;;;;;;;;;;;;;;;;6181241;23;19989;-90
2023/07/23 06:24:09;;;;;;;;;;;;;;;;;;6177433;23;19924;-88
2023/07/23 06:26:41;;;;;;;;;;;;;;;;;;6178492;23;19919;-88
2023/07/23 06:29:10;;;;;;;;;;;;;;;;;;6178891;23;19919;-88
2023/07/23 06:31:48;;;;;;;;;;;;;;;;;;6201127;23;20337;-87
2023/07/23 06:34:19;;;;;;;;;;;;;;;;;;6181837;23;20322;-91
2023/07/23 06:36:47;;;;;;;;;;;;;;;;;;6180801;23;19920;-88
2023/07/23 06:39:19;;;;;;;;;;;;;;;;;;6204963;23;19930;-88
2023/07/23 06:41:45;;;;;;;;;;;;;;;;;;6181698;23;19927;-88
2023/07/23 06:44:11;;;;;;;;;;;;;;;;;;6233713;23;19923;-87
2023/07/23 06:46:37;;;;;;;;;;;;;;;;;;6183456;23;19965;-87
2023/07/23 06:49:03;;;;;;;;;;;;;;;;;;6180604;23;19916;-87
2023/07/23 06:51:39;;;;;;;;;;;;;;;;;;6207438;23;20329;-87
2023/07/23 06:54:05;;;;;;;;;;;;;;;;;;6180859;23;19920;-88
2023/07/23 06:56:31;;;;;;;;;;;;;;;;;;6208146;23;19923;-87
2023/07/23 06:58:57;;;;;;;;;;;;;;;;;;6184075;23;20007;-88
2023/07/23 07:01:24;;;;;;;;;;;;;;;;;;6203665;23;20041;-88
2023/07/23 07:03:50;;;;;;;;;;;;;;;;;;6208571;23;19969;-88
2023/07/23 07:06:16;;;;;;;;;;;;;;;;;;6181711;23;20237;-88
2023/07/23 07:08:44;;;;;;;;;;;;;;;;;;6207614;23;19965;-88
2023/07/23 07:11:10;;;;;;;;;;;;;;;;;;6179475;23;20374;-88
2023/07/23 07:13:36;;;;;;;;;;;;;;;;;;6183689;23;19924;-88
2023/07/23 07:16:02;;;;;;;;;;;;;;;;;;6206795;23;19916;-88
2023/07/23 07:18:28;;;;;;;;;;;;;;;;;;6182282;23;19958;-88
2023/07/23 07:20:54;;;;;;;;;;;;;;;;;;6182593;23;19947;-88
2023/07/23 07:23:20;;;;;;;;;;;;;;;;;;6178072;23;20329;-88
2023/07/23 07:25:48;;;;;;;;;;;;;;;;;;6182771;23;19923;-87
2023/07/23 07:28:15;;;;;;;;;;;;;;;;;;6181024;23;19919;-88
2023/07/23 07:30:40;;;;;;;;;;;;;;;;;;6206875;23;19923;-87
2023/07/23 07:33:06;;;;;;;;;;;;;;;;;;6181227;23;19915;-88
2023/07/23 07:35:32;;;;;;;;;;;;;;;;;;6208805;23;20325;-88
2023/07/23 07:40:49;;;;;;;;;;;;;;;;;;6180563;23;19920;-88
2023/07/23 07:43:15;;;;;;;;;;;;;;;;;;6204921;23;20034;-88
2023/07/23 07:45:41;;;;;;;;;;;;;;;;;;6182969;23;19963;-89
2023/07/23 07:48:10;;;;;;;;;;;;;;;;;;6203287;23;19946;-88
2023/07/23 07:50:36;;;;;;;;;;;;;;;;;;6183055;23;19919;-88
2023/07/23 07:53:02;;;;;;;;;;;;;;;;;;6204485;23;20341;-89
2023/07/23 07:55:38;;;;;;;;;;;;;;;;;;6206672;23;19927;-89
2023/07/23 07:58:04;;;;;;;;;;;;;;;;;;6179068;23;19998;-89
2023/07/23 08:00:30;;;;;;;;;;;;;;;;;;6207911;23;19959;-89
2023/07/23 08:06:21;;;;;;;;;;;;;;;;;;6238830;23;20751;-89
2023/07/23 08:08:50;;;;;;;;;;;;;;;;;;6180193;23;19931;-88
2023/07/23 08:11:16;;;;;;;;;;;;;;;;;;6177119;23;19923;-88
2023/07/23 08:13:42;;;;;;;;;;;;;;;;;;6183447;23;20006;-88
2023/07/23 08:16:08;;;;;;;;;;;;;;;;;;6183131;23;19919;-89
2023/07/23 08:18:34;;;;;;;;;;;;;;;;;;6206658;23;19922;-90
2023/07/23 08:21:04;;;;;;;;;;;;;;;;;;6181928;23;19942;-89
2023/07/23 08:23:30;;;;;;;;;;;;;;;;;;6183920;23;19919;-89
2023/07/23 08:25:57;;;;;;;;;;;;;;;;;;6205712;23;20469;-90
2023/07/23 08:28:27;;;;;;;;;;;;;;;;;;6203304;23;19919;-89
2023/07/23 08:30:55;;;;;;;;;;;;;;;;;;6181366;23;19916;-89
2023/07/23 08:33:26;;;;;;;;;;;;;;;;;;6181338;23;19926;-89
2023/07/23 08:35:52;;;;;;;;;;;;;;;;;;6180728;23;19951;-89
2023/07/23 08:38:18;;;;;;;;;;;;;;;;;;6178215;23;19919;-89
2023/07/23 08:40:44;;;;;;;;;;;;;;;;;;6206720;23;20006;-89
2023/07/23 08:43:13;;;;;;;;;;;;;;;;;;6203120;23;19966;-89
2023/07/23 08:45:39;;;;;;;;;;;;;;;;;;6181147;23;19942;-88
2023/07/23 08:48:04;;;;;;;;;;;;;;;;;;6177312;23;19916;-88
2023/07/23 08:50:30;;;;;;;;;;;;;;;;;;6180668;23;19942;-89
2023/07/23 08:52:56;;;;;;;;;;;;;;;;;;6205795;23;19930;-89
2023/07/23 08:55:22;;;;;;;;;;;;;;;;;;6177990;23;20419;-89
2023/07/23 08:57:48;;;;;;;;;;;;;;;;;;6208243;23;20249;-89
2023/07/23 09:00:14;;;;;;;;;;;;;;;;;;6178772;23;19920;-89
2023/07/23 09:02:40;;;;;;;;;;;;;;;;;;6182838;23;19919;-88
2023/07/23 09:05:06;;;;;;;;;;;;;;;;;;6176951;23;19959;-88
2023/07/23 09:07:32;;;;;;;;;;;;;;;;;;6208011;23;19919;-88
2023/07/23 09:09:58;;;;;;;;;;;;;;;;;;6207586;23;19926;-87
2023/07/23 09:12:27;;;;;;;;;;;;;;;;;;6178714;23;19916;-89
2023/07/23 09:14:53;;;;;;;;;;;;;;;;;;6204586;23;20412;-88
2023/07/23 09:17:19;;;;;;;;;;;;;;;;;;6176312;23;19919;-89
2023/07/23 09:19:45;;;;;;;;;;;;;;;;;;6202922;23;19938;-88
2023/07/23 09:22:11;;;;;;;;;;;;;;;;;;6175228;23;19998;-89
2023/07/23 09:24:37;;;;;;;;;;;;;;;;;;6176706;23;19983;-87
2023/07/23 09:27:03;;;;;;;;;;;;;;;;;;6176097;23;19930;-88
2023/07/23 09:29:29;;;;;;;;;;;;;;;;;;6176505;23;19920;-88
2023/07/23 09:31:55;;;;;;;;;;;;;;;;;;6197920;23;20364;-88
2023/07/23 09:34:24;;;;;;;;;;;;;;;;;;6169835;23;20197;-87
2023/07/23 09:36:53;;;;;;;;;;;;;;;;;;6173554;23;20269;-89
2023/07/23 09:39:19;;;;;;;;;;;;;;;;;;6196985;23;19915;-88
2023/07/23 09:41:50;;;;;;;;;;;;;;;;;;6197247;23;20378;-90
2023/07/23 09:44:19;;;;;;;;;;;;;;;;;;6170944;23;19981;-90
2023/07/23 09:46:56;;;;;;;;;;;;;;;;;;6205170;23;20303;-88
2023/07/23 09:49:31;;;;;;;;;;;;;;;;;;6174048;22;20771;-90
2023/07/23 09:51:59;;;;;;;;;;;;;;;;;;6203367;23;19927;-90
2023/07/23 09:54:43;;;;;;;;;;;;;;;;;;6177563;23;20487;-90
2023/07/23 09:57:12;;;;;;;;;;;;;;;;;;6170708;23;19990;-86
2023/07/23 09:59:38;;;;;;;;;;;;;;;;;;6173646;23;20163;-88
2023/07/23 10:02:04;;;;;;;;;;;;;;;;;;6194971;23;19920;-89
2023/07/23 10:04:30;;;;;;;;;;;;;;;;;;6171475;23;19923;-89
2023/07/23 10:06:59;;;;;;;;;;;;;;;;;;6197662;23;20489;-89
2023/07/23 10:09:25;;;;;;;;;;;;;;;;;;6172049;23;19990;-89
2023/07/23 10:11:51;;;;;;;;;;;;;;;;;;6196653;23;20045;-89
2023/07/23 10:14:17;;;;;;;;;;;;;;;;;;6174692;23;19953;-87
2023/07/23 10:16:43;;;;;;;;;;;;;;;;;;6201490;23;19985;-88
2023/07/23 10:19:09;;;;;;;;;;;;;;;;;;6174001;23;19919;-88
2023/07/23 10:21:35;;;;;;;;;;;;;;;;;;6201363;23;19919;-89
2023/07/23 10:24:01;;;;;;;;;;;;;;;;;;6177487;23;20305;-89
2023/07/23 10:26:27;;;;;;;;;;;;;;;;;;6205581;23;19920;-88
2023/07/23 10:28:53;;;;;;;;;;;;;;;;;;6203370;23;20769;-88
2023/07/23 10:31:20;;;;;;;;;;;;;;;;;;6175240;23;19933;-88
2023/07/23 10:33:47;;;;;;;;;;;;;;;;;;6203555;23;19919;-88
2023/07/23 10:36:13;;;;;;;;;;;;;;;;;;6201812;23;19926;-88
2023/07/23 10:38:39;;;;;;;;;;;;;;;;;;6203480;23;19920;-88
2023/07/23 10:41:08;;;;;;;;;;;;;;;;;;6172542;23;19919;-87
2023/07/23 10:43:34;;;;;;;;;;;;;;;;;;6231265;23;19950;-88
2023/07/23 10:46:03;;;;;;;;;;;;;;;;;;6199855;23;19923;-87
2023/07/23 10:48:29;;;;;;;;;;;;;;;;;;6175318;23;20426;-86
2023/07/23 10:50:55;;;;;;;;;;;;;;;;;;6174903;23;19986;-87
2023/07/23 10:53:21;;;;;;;;;;;;;;;;;;6170893;23;20399;-86
2023/07/23 10:55:47;;;;;;;;;;;;;;;;;;6174347;23;19986;-88
2023/07/23 10:58:13;;;;;;;;;;;;;;;;;;6200563;23;19920;-87
2023/07/23 11:00:39;;;;;;;;;;;;;;;;;;6199773;23;19923;-87
2023/07/23 11:03:05;;;;;;;;;;;;;;;;;;6173188;23;19962;-87
2023/07/23 11:05:31;;;;;;;;;;;;;;;;;;6200650;23;19985;-88
2023/07/23 11:07:57;;;;;;;;;;;;;;;;;;6175682;23;19920;-87
2023/07/23 11:10:23;;;;;;;;;;;;;;;;;;6201255;23;20355;-88
2023/07/23 11:12:49;;;;;;;;;;;;;;;;;;6203149;23;20452;-88
2023/07/23 11:15:15;;;;;;;;;;;;;;;;;;6202636;23;19995;-88
2023/07/23 11:17:41;;;;;;;;;;;;;;;;;;6204799;23;19919;-88
2023/07/23 11:20:07;;;;;;;;;;;;;;;;;;6177174;23;20534;-89
2023/07/23 11:22:33;;;;;;;;;;;;;;;;;;6176959;23;19930;-88
2023/07/23 11:24:59;;;;;;;;;;;;;;;;;;6204294;23;20428;-88
2023/07/23 11:30:29;;;;;;;;;;;;;;;;;;6178920;23;19920;-89
2023/07/23 11:32:55;;;;;;;;;;;;;;;;;;6203504;23;19919;-89
2023/07/23 11:35:31;;;;;;;;;;;;;;;;;;6224415;23;19951;-87
2023/07/23 11:38:03;;;;;;;;;;;;;;;;;;6207016;23;19954;-90
2023/07/23 11:40:29;;;;;;;;;;;;;;;;;;6202245;23;19994;-88
2023/07/23 11:42:55;;;;;;;;;;;;;;;;;;6203648;23;19973;-89
2023/07/23 11:45:21;;;;;;;;;;;;;;;;;;6177827;23;20333;-89
2023/07/23 11:47:48;;;;;;;;;;;;;;;;;;6180465;23;20361;-89
2023/07/23 11:50:14;;;;;;;;;;;;;;;;;;6204079;23;19958;-89
2023/07/23 11:52:43;;;;;;;;;;;;;;;;;;6179048;23;19919;-89
2023/07/23 11:55:11;;;;;;;;;;;;;;;;;;6201148;23;19920;-89
2023/07/23 11:57:37;;;;;;;;;;;;;;;;;;6204515;23;20388;-89
2023/07/23 12:00:04;;;;;;;;;;;;;;;;;;6202959;23;20329;-89
2023/07/23 12:02:38;;;;;;;;;;;;;;;;;;6209478;23;20682;-88
2023/07/23 12:05:07;;;;;;;;;;;;;;;;;;6230700;23;19930;-87
2023/07/23 12:07:33;;;;;;;;;;;;;;;;;;6177096;23;19998;-88
2023/07/23 12:09:59;;;;;;;;;;;;;;;;;;6180675;23;19923;-88
2023/07/23 12:12:25;;;;;;;;;;;;;;;;;;6195525;23;19927;-88
2023/07/23 12:14:51;;;;;;;;;;;;;;;;;;6203938;23;19924;-88
2023/07/23 12:17:17;;;;;;;;;;;;;;;;;;6177184;23;19923;-87
2023/07/23 12:19:43;;;;;;;;;;;;;;;;;;6232980;23;19920;-87
2023/07/23 12:22:09;;;;;;;;;;;;;;;;;;6176982;23;20245;-88
2023/07/23 12:24:38;;;;;;;;;;;;;;;;;;6179469;23;19924;-87
2023/07/23 12:27:05;;;;;;;;;;;;;;;;;;6176735;23;19920;-88
2023/07/23 12:29:31;;;;;;;;;;;;;;;;;;6178845;23;20329;-87
2023/07/23 12:31:59;;;;;;;;;;;;;;;;;;6201531;23;19927;-88
2023/07/23 12:34:25;;;;;;;;;;;;;;;;;;6174475;23;20356;-88
2023/07/23 12:36:51;;;;;;;;;;;;;;;;;;6178550;23;20598;-88
2023/07/23 12:39:25;;;;;;;;;;;;;;;;;;6174652;23;20320;-87
2023/07/23 12:41:51;;;;;;;;;;;;;;;;;;6176593;23;19919;-88
2023/07/23 12:44:17;;;;;;;;;;;;;;;;;;6177211;23;20364;-88
2023/07/23 12:46:43;;;;;;;;;;;;;;;;;;6182296;23;19967;-88
2023/07/23 12:49:09;;;;;;;;;;;;;;;;;;6175818;22;20623;-88
2023/07/23 12:51:35;;;;;;;;;;;;;;;;;;6180604;23;19954;-88
2023/07/23 12:54:10;;;;;;;;;;;;;;;;;;6199670;23;20387;-88
2023/07/23 12:56:36;;;;;;;;;;;;;;;;;;6178007;23;19924;-88
2023/07/23 12:59:02;;;;;;;;;;;;;;;;;;6176311;23;20622;-88
2023/07/23 13:01:28;;;;;;;;;;;;;;;;;;6182157;23;19943;-88
2023/07/23 13:03:55;;;;;;;;;;;;;;;;;;6204857;23;19926;-88
2023/07/23 13:06:28;;;;;;;;;;;;;;;;;;6199686;23;20533;-88
2023/07/23 13:08:55;;;;;;;;;;;;;;;;;;6178246;23;19927;-88
2023/07/23 13:11:21;;;;;;;;;;;;;;;;;;6226257;23;20335;-88
2023/07/23 13:13:48;;;;;;;;;;;;;;;;;;6176569;23;19993;-88
2023/07/23 13:16:16;;;;;;;;;;;;;;;;;;6176078;23;19919;-88
2023/07/23 13:18:42;;;;;;;;;;;;;;;;;;6201136;23;19920;-89
2023/07/23 13:21:11;;;;;;;;;;;;;;;;;;6172894;23;19919;-88
2023/07/23 13:23:40;;;;;;;;;;;;;;;;;;6175192;23;19915;-90
2023/07/23 13:26:08;;;;;;;;;;;;;;;;;;6195969;23;19931;-88
2023/07/23 13:28:40;;;;;;;;;;;;;;;;;;6199401;23;20397;-88
2023/07/23 13:31:09;;;;;;;;;;;;;;;;;;6174670;23;19939;-88
2023/07/23 13:33:34;;;;;;;;;;;;;;;;;;6200860;23;19997;-88
2023/07/23 13:36:03;;;;;;;;;;;;;;;;;;6180961;23;19920;-88
2023/07/23 13:38:29;;;;;;;;;;;;;;;;;;6203345;23;19955;-88
2023/07/23 13:40:55;;;;;;;;;;;;;;;;;;6174734;23;19962;-89
2023/07/23 13:43:21;;;;;;;;;;;;;;;;;;6174115;23;20351;-88
2023/07/23 13:45:47;;;;;;;;;;;;;;;;;;6200951;23;19920;-87
2023/07/23 13:48:13;;;;;;;;;;;;;;;;;;6194082;23;19920;-89
2023/07/23 13:50:39;;;;;;;;;;;;;;;;;;6203803;23;19974;-88
2023/07/23 13:53:05;;;;;;;;;;;;;;;;;;6202968;23;20332;-88
2023/07/23 13:55:31;;;;;;;;;;;;;;;;;;6176730;23;19920;-88
2023/07/23 13:57:57;;;;;;;;;;;;;;;;;;6179583;23;19920;-88
2023/07/23 14:00:23;;;;;;;;;;;;;;;;;;6203236;23;20471;-88
2023/07/23 14:02:57;;;;;;;;;;;;;;;;;;6178666;23;19916;-88
2023/07/23 14:05:28;;;;;;;;;;;;;;;;;;6178218;23;19924;-89
2023/07/23 14:07:54;;;;;;;;;;;;;;;;;;6179079;23;20359;-88
2023/07/23 14:10:20;;;;;;;;;;;;;;;;;;6202214;23;19986;-88
2023/07/23 14:12:57;;;;;;;;;;;;;;;;;;;;;
2023/07/23 14:15:57;;;;;;;;;;;;;;;;;;6218862;23;19934;-89
2023/07/23 14:18:23;;;;;;;;;;;;;;;;;;6177262;23;20069;-88
2023/07/23 14:20:51;;;;;;;;;;;;;;;;;;6180736;23;20372;-89
2023/07/23 14:23:20;;;;;;;;;;;;;;;;;;6205097;23;19919;-89
2023/07/23 14:31:23;;;;;;;;;;;;;;;;;;6110695;23;19921;-89
2023/07/23 14:33:49;;;;;;;;;;;;;;;;;;6175669;23;19926;-89
2023/07/23 14:36:15;;;;;;;;;;;;;;;;;;6202403;23;19966;-89
2023/07/23 14:38:49;;;;;;;;;;;;;;;;;;6179051;23;19915;-89
2023/07/23 14:41:15;;;;;;;;;;;;;;;;;;6174589;23;19926;-89
2023/07/23 14:47:09;;;;;;;;;;;;;;;;;;6139325;23;19924;-89
2023/07/23 14:49:37;;;;;;;;;;;;;;;;;;6181817;23;19919;-89
2023/07/23 14:52:21;;;;;;;;;;;;;;;;;;6179836;23;19923;-90
2023/07/23 14:54:47;;;;;;;;;;;;;;;;;;6179347;23;20034;-89
2023/07/23 14:57:13;;;;;;;;;;;;;;;;;;6203304;23;19922;-88
2023/07/23 14:59:39;;;;;;;;;;;;;;;;;;6208785;23;19920;-88
2023/07/23 15:02:05;;;;;;;;;;;;;;;;;;6181058;23;19922;-88
2023/07/23 15:04:31;;;;;;;;;;;;;;;;;;6184031;23;19923;-89
2023/07/23 15:06:57;;;;;;;;;;;;;;;;;;6184339;23;19981;-88
2023/07/23 15:09:23;;;;;;;;;;;;;;;;;;6179672;23;19919;-88
2023/07/23 15:11:49;;;;;;;;;;;;;;;;;;6174805;22;19934;-83
2023/07/23 15:14:15;;;;;;;;;;;;;;;;;;6195254;23;20396;-83
2023/07/23 15:16:41;;;;;;;;;;;;;;;;;;6179245;23;19924;-83
2023/07/23 15:19:08;;;;;;;;;;;;;;;;;;6173267;23;20107;-83
2023/07/23 15:21:34;;;;;;;;;;;;;;;;;;6202192;23;20341;-83
2023/07/23 15:24:00;;;;;;;;;;;;;;;;;;6200103;23;19920;-83
2023/07/23 15:26:26;;;;;;;;;;;;;;;;;;6164974;23;20344;-83
2023/07/23 15:28:52;;;;;;;;;;;;;;;;;;6192963;23;19922;-84
2023/07/23 15:31:18;;;;;;;;;;;;;;;;;;6190357;23;19920;-83
2023/07/23 15:33:44;;;;;;;;;;;;;;;;;;6170965;23;19986;-83
2023/07/23 15:36:10;;;;;;;;;;;;;;;;;;6191857;23;20248;-84
2023/07/23 15:38:36;;;;;;;;;;;;;;;;;;6197242;23;20256;-84
2023/07/23 15:41:02;;;;;;;;;;;;;;;;;;6194096;23;19929;-84
2023/07/23 15:43:28;;;;;;;;;;;;;;;;;;6197477;23;19923;-84
2023/07/23 15:45:54;;;;;;;;;;;;;;;;;;6198060;23;19924;-84
2023/07/23 15:48:20;;;;;;;;;;;;;;;;;;6194487;23;19931;-84
2023/07/23 15:50:49;;;;;;;;;;;;;;;;;;6197238;23;19920;-83
2023/07/23 15:53:15;;;;;;;;;;;;;;;;;;6170689;23;19927;-83
2023/07/23 15:55:41;;;;;;;;;;;;;;;;;;6200001;23;19920;-84
2023/07/23 15:58:08;;;;;;;;;;;;;;;;;;6193453;23;19927;-84
2023/07/23 16:00:34;;;;;;;;;;;;;;;;;;6170824;23;19926;-83
2023/07/23 16:03:03;;;;;;;;;;;;;;;;;;6177169;23;19923;-84
2023/07/23 16:05:29;;;;;;;;;;;;;;;;;;6204029;23;19924;-83
2023/07/23 16:07:55;;;;;;;;;;;;;;;;;;6202849;23;20446;-83
2023/07/23 16:10:21;;;;;;;;;;;;;;;;;;6200583;23;20521;-84
2023/07/23 16:12:47;;;;;;;;;;;;;;;;;;6178273;23;20380;-83
2023/07/23 16:15:13;;;;;;;;;;;;;;;;;;6196961;23;20007;-83
2023/07/23 16:17:39;;;;;;;;;;;;;;;;;;6198634;23;19923;-83
2023/07/23 16:20:05;;;;;;;;;;;;;;;;;;6199605;23;19966;-83
2023/07/23 16:22:33;;;;;;;;;;;;;;;;;;6174053;23;19927;-84
2023/07/23 16:24:59;;;;;;;;;;;;;;;;;;6201642;23;20244;-83
2023/07/23 16:27:28;;;;;;;;;;;;;;;;;;6174678;23;19927;-83
2023/07/23 16:29:54;;;;;;;;;;;;;;;;;;6178613;23;20258;-83
2023/07/23 16:32:20;;;;;;;;;;;;;;;;;;6202463;23;19955;-83
2023/07/23 16:34:46;;;;;;;;;;;;;;;;;;6202702;23;19920;-83
2023/07/23 16:37:12;;;;;;;;;;;;;;;;;;6177412;23;19919;-83
2023/07/23 16:39:38;;;;;;;;;;;;;;;;;;6179703;23;19916;-83
2023/07/23 16:42:04;;;;;;;;;;;;;;;;;;6176689;23;19923;-84
2023/07/23 16:44:32;;;;;;;;;;;;;;;;;;6201219;23;19924;-83
2023/07/23 16:46:58;;;;;;;;;;;;;;;;;;6201999;23;20050;-83
2023/07/23 16:49:24;;;;;;;;;;;;;;;;;;6199313;23;20326;-83
2023/07/23 16:51:50;;;;;;;;;;;;;;;;;;6204210;23;20265;-83
2023/07/23 16:54:16;;;;;;;;;;;;;;;;;;6174445;23;19923;-84
2023/07/23 16:56:42;;;;;;;;;;;;;;;;;;6202292;23;20821;-83
2023/07/23 16:59:08;;;;;;;;;;;;;;;;;;6177361;23;19927;-83
2023/07/23 17:01:34;;;;;;;;;;;;;;;;;;6206847;23;20319;-83
2023/07/23 17:04:00;;;;;;;;;;;;;;;;;;6180641;23;19963;-83